createdAt,value
2022-10-13T00:01:19.390Z,9.32
2022-10-13T00:03:47.208Z,9.98
2022-10-13T00:06:22.383Z,9.30
2022-10-13T00:08:49.402Z,9.48
2022-10-13T00:11:21.481Z,10.32
2022-10-13T00:13:49.454Z,10.68
2022-10-13T00:16:18.240Z,11.35
2022-10-13T00:18:45.336Z,9.68
2022-10-13T00:21:16.637Z,9.82
2022-10-13T00:23:45.467Z,9.70
2022-10-13T00:26:17.836Z,8.73
2022-10-13T00:28:48.453Z,8.70
2022-10-13T00:31:29.909Z,8.80
2022-10-13T00:33:58.692Z,10.32
2022-10-13T00:36:25.808Z,10.05
2022-10-13T00:38:53.058Z,9.45
2022-10-13T00:41:20.487Z,9.85
2022-10-13T00:43:58.415Z,9.07
2022-10-13T00:46:28.731Z,10.40
2022-10-13T00:49:00.465Z,11.23
2022-10-13T00:51:30.360Z,9.63
2022-10-13T00:53:59.132Z,9.52
2022-10-13T00:56:27.735Z,8.65
2022-10-13T00:58:55.969Z,8.95
2022-10-13T01:01:22.571Z,8.93
2022-10-13T01:03:49.271Z,8.60
2022-10-13T01:06:21.179Z,8.45
2022-10-13T01:08:50.243Z,8.65
2022-10-13T01:11:19.604Z,8.23
2022-10-13T01:13:52.491Z,8.05
2022-10-13T01:16:39.736Z,8.13
2022-10-13T01:19:27.477Z,7.68
2022-10-13T01:22:17.484Z,7.95
2022-10-13T01:25:01.052Z,8.05
2022-10-13T01:27:54.670Z,8.35
2022-10-13T01:30:23.149Z,7.50
2022-10-13T01:33:19.185Z,8.10
2022-10-13T01:36:09.799Z,9.30
2022-10-13T01:39:01.033Z,7.78
2022-10-13T01:41:36.938Z,7.85
2022-10-13T01:44:16.273Z,8.30
2022-10-13T01:46:52.263Z,10.43
2022-10-13T01:49:22.957Z,9.82
2022-10-13T01:51:50.188Z,9.90
2022-10-13T01:54:16.785Z,9.63
2022-10-13T01:56:54.836Z,9.32
2022-10-13T01:59:23.623Z,9.55
2022-10-13T02:02:02.140Z,9.25
2022-10-13T02:04:56.467Z,9.80
2022-10-13T02:07:41.384Z,9.07
2022-10-13T02:13:01.436Z,8.93
2022-10-13T02:15:35.028Z,8.63
2022-10-13T02:18:08.587Z,8.68
2022-10-13T02:20:36.692Z,9.18
2022-10-13T02:23:09.231Z,10.32
2022-10-13T02:25:36.857Z,9.65
2022-10-13T02:28:04.394Z,10.10
2022-10-13T02:30:35.704Z,9.10
2022-10-13T02:33:03.430Z,8.70
2022-10-13T02:35:30.965Z,9.63
2022-10-13T02:38:02.285Z,9.68
2022-10-13T02:40:29.048Z,10.40
2022-10-13T02:42:55.794Z,9.82
2022-10-13T02:45:22.620Z,9.40
2022-10-13T02:47:50.100Z,9.70
2022-10-13T02:50:16.880Z,8.70
2022-10-13T02:52:43.419Z,11.02
2022-10-13T02:55:10.344Z,10.18
2022-10-13T02:57:37.775Z,10.55
2022-10-13T03:00:07.112Z,11.73
2022-10-13T03:02:33.703Z,11.75
2022-10-13T03:05:00.299Z,10.80
2022-10-13T03:07:27.198Z,11.90
2022-10-13T03:09:53.984Z,11.05
2022-10-13T03:12:20.823Z,10.63
2022-10-13T03:14:47.802Z,8.82
2022-10-13T03:17:14.387Z,9.80
2022-10-13T03:19:41.018Z,10.13
2022-10-13T03:22:14.643Z,9.05
2022-10-13T03:24:41.912Z,8.93
2022-10-13T03:27:08.508Z,8.77
2022-10-13T03:29:35.287Z,8.75
2022-10-13T03:32:01.902Z,10.02
2022-10-13T03:34:28.496Z,10.52
2022-10-13T03:36:56.002Z,9.45
2022-10-13T03:39:22.823Z,9.18
2022-10-13T03:41:49.698Z,8.18
2022-10-13T03:44:16.356Z,8.25
2022-10-13T03:46:42.925Z,7.65
2022-10-13T03:49:11.726Z,9.25
2022-10-13T03:51:38.853Z,9.63
2022-10-13T03:54:05.508Z,9.82
2022-10-13T03:56:32.136Z,10.40
2022-10-13T03:59:00.336Z,10.00
2022-10-13T04:01:29.962Z,9.27
2022-10-13T04:03:58.377Z,10.25
2022-10-13T04:06:26.594Z,10.30
2022-10-13T04:08:54.453Z,9.52
2022-10-13T04:11:21.859Z,9.68
2022-10-13T04:13:52.396Z,9.98
2022-10-13T04:16:23.888Z,10.68
2022-10-13T04:18:53.758Z,9.80
2022-10-13T04:21:21.678Z,9.45
2022-10-13T04:23:48.646Z,9.32
2022-10-13T04:26:18.465Z,9.35
2022-10-13T04:28:46.846Z,9.40
2022-10-13T04:31:13.622Z,9.57
2022-10-13T04:33:40.411Z,8.57
2022-10-13T04:36:09.014Z,8.75
2022-10-13T04:38:35.744Z,8.13
2022-10-13T04:41:04.183Z,8.43
2022-10-13T04:43:31.956Z,9.18
2022-10-13T04:46:12.397Z,8.80
2022-10-13T04:48:39.539Z,9.80
2022-10-13T04:51:09.053Z,9.35
2022-10-13T04:53:36.834Z,9.52
2022-10-13T04:56:09.623Z,9.00
2022-10-13T04:58:37.921Z,9.10
2022-10-13T05:01:06.837Z,9.27
2022-10-13T05:03:34.028Z,9.25
2022-10-13T05:06:00.789Z,9.18
2022-10-13T05:08:27.417Z,10.48
2022-10-13T05:10:59.166Z,9.40
2022-10-13T05:13:26.734Z,8.75
2022-10-13T05:15:57.233Z,9.18
2022-10-13T05:18:24.206Z,8.98
2022-10-13T05:20:50.900Z,9.43
2022-10-13T05:23:17.966Z,9.35
2022-10-13T05:25:44.859Z,8.45
2022-10-13T05:28:13.714Z,9.35
2022-10-13T05:30:40.328Z,8.52
2022-10-13T05:33:07.052Z,10.05
2022-10-13T05:35:33.632Z,9.32
2022-10-13T05:38:00.271Z,8.93
2022-10-13T05:40:28.384Z,9.35
2022-10-13T05:43:00.651Z,10.00
2022-10-13T05:45:29.577Z,8.95
2022-10-13T05:47:56.147Z,10.20
2022-10-13T05:50:22.927Z,7.95
2022-10-13T05:52:51.516Z,9.85
2022-10-13T05:55:19.090Z,9.63
2022-10-13T05:57:49.597Z,9.13
2022-10-13T06:00:19.410Z,9.18
2022-10-13T06:03:01.927Z,8.95
2022-10-13T06:05:28.948Z,9.38
2022-10-13T06:07:56.010Z,9.57
2022-10-13T06:10:23.377Z,9.73
2022-10-13T06:12:50.064Z,10.60
2022-10-13T06:15:16.817Z,9.73
2022-10-13T06:17:43.549Z,10.13
2022-10-13T06:20:10.803Z,10.45
2022-10-13T06:22:38.276Z,10.52
2022-10-13T06:25:06.774Z,10.30
2022-10-13T06:27:33.524Z,11.30
2022-10-13T06:30:00.144Z,19.27
2022-10-13T06:32:26.705Z,20.00
2022-10-13T06:34:53.479Z,16.80
2022-10-13T06:37:23.430Z,15.77
2022-10-13T06:39:53.104Z,14.93
2022-10-13T06:42:19.963Z,14.13
2022-10-13T06:44:50.953Z,14.15
2022-10-13T06:47:17.917Z,13.98
2022-10-13T06:49:44.460Z,12.75
2022-10-13T06:52:12.624Z,12.43
2022-10-13T06:54:40.401Z,12.10
2022-10-13T06:57:07.248Z,10.82
2022-10-13T06:59:33.905Z,13.48
2022-10-13T07:02:00.566Z,12.38
2022-10-13T07:04:28.205Z,10.75
2022-10-13T07:06:57.758Z,11.10
2022-10-13T07:09:24.507Z,11.30
2022-10-13T07:11:51.310Z,11.40
2022-10-13T07:14:17.927Z,12.80
2022-10-13T07:16:44.601Z,12.20
2022-10-13T07:19:11.186Z,13.00
2022-10-13T07:21:41.201Z,12.43
2022-10-13T07:24:08.001Z,10.98
2022-10-13T07:26:34.651Z,11.80
2022-10-13T07:29:02.050Z,11.27
2022-10-13T07:31:28.839Z,12.85
2022-10-13T07:33:56.968Z,11.27
2022-10-13T07:36:27.633Z,10.77
2022-10-13T07:38:54.286Z,11.82
2022-10-13T07:41:20.896Z,11.30
2022-10-13T07:43:47.545Z,11.48
2022-10-13T07:46:14.404Z,11.82
2022-10-13T07:48:41.751Z,11.18
2022-10-13T07:51:11.303Z,11.68
2022-10-13T07:53:39.260Z,11.02
2022-10-13T07:56:07.979Z,12.20
2022-10-13T07:58:37.877Z,11.77
2022-10-13T08:01:04.960Z,10.13
2022-10-13T08:06:05.547Z,11.07
2022-10-13T08:08:32.992Z,11.48
2022-10-13T08:11:14.663Z,10.25
2022-10-13T08:13:46.669Z,10.80
2022-10-13T08:16:13.724Z,10.43
2022-10-13T08:18:40.295Z,9.68
2022-10-13T08:21:39.311Z,9.88
2022-10-13T08:23:59.272Z,8.52
2022-10-13T08:26:28.464Z,8.23
2022-10-13T08:29:16.590Z,8.43
2022-10-13T08:31:43.713Z,8.60
2022-10-13T08:34:11.526Z,8.82
2022-10-13T08:36:39.551Z,8.88
2022-10-13T08:39:06.853Z,10.35
2022-10-13T08:41:38.897Z,8.48
2022-10-13T08:47:21.371Z,8.07
2022-10-13T08:49:48.157Z,9.60
2022-10-13T08:52:24.705Z,7.50
2022-10-13T08:54:53.368Z,8.18
2022-10-13T08:57:21.886Z,8.57
2022-10-13T08:59:49.299Z,8.95
2022-10-13T09:02:26.495Z,9.20
2022-10-13T09:04:54.145Z,8.85
2022-10-13T09:07:31.960Z,8.18
2022-10-13T09:09:58.626Z,9.35
2022-10-13T09:12:27.801Z,8.20
2022-10-13T09:15:12.213Z,8.07
2022-10-13T09:17:40.937Z,7.72
2022-10-13T09:20:25.490Z,9.00
2022-10-13T09:23:03.162Z,8.50
2022-10-13T09:25:30.448Z,7.20
2022-10-13T09:28:08.924Z,8.45
2022-10-13T09:30:41.527Z,7.35
2022-10-13T09:33:09.203Z,7.68
2022-10-13T09:35:48.620Z,7.22
2022-10-13T09:38:21.014Z,7.30
2022-10-13T09:41:16.796Z,5.82
2022-10-13T09:43:46.499Z,7.07
2022-10-13T09:46:36.394Z,6.40
2022-10-13T09:49:43.019Z,6.45
2022-10-13T09:52:12.811Z,6.50
2022-10-13T09:54:50.015Z,6.88
2022-10-13T09:57:31.655Z,7.75
2022-10-13T10:00:05.268Z,8.25
2022-10-13T10:02:45.283Z,10.38
2022-10-13T10:05:25.843Z,9.05
2022-10-13T10:08:04.070Z,6.72
2022-10-13T10:13:03.111Z,10.45
2022-10-13T10:15:53.403Z,11.27
2022-10-13T10:18:31.917Z,11.18
2022-10-13T10:21:04.460Z,12.07
2022-10-13T10:23:54.093Z,14.25
2022-10-13T10:26:32.572Z,13.45
2022-10-13T10:29:34.597Z,13.82
2022-10-13T10:32:10.298Z,14.98
2022-10-13T10:35:06.506Z,13.77
2022-10-13T10:37:57.775Z,15.45
2022-10-13T10:40:35.267Z,15.05
2022-10-13T10:43:30.851Z,15.57
2022-10-13T10:45:59.574Z,14.90
2022-10-13T10:48:37.940Z,12.07
2022-10-13T10:51:12.211Z,12.32
2022-10-13T10:53:58.152Z,9.55
2022-10-13T10:59:26.133Z,9.23
2022-10-13T11:02:07.849Z,9.75
2022-10-13T11:04:49.030Z,12.40
2022-10-13T11:07:24.744Z,11.77
2022-10-13T11:09:54.920Z,11.95
2022-10-13T11:12:23.899Z,13.25
2022-10-13T11:15:12.826Z,14.52
2022-10-13T11:17:40.990Z,15.93
2022-10-13T11:20:33.684Z,16.92
2022-10-13T11:23:00.353Z,18.75
2022-10-13T11:25:41.400Z,19.42
2022-10-13T11:28:23.400Z,18.85
2022-10-13T11:30:50.556Z,19.90
2022-10-13T11:33:39.044Z,21.33
2022-10-13T11:36:41.582Z,21.00
2022-10-13T11:42:25.391Z,20.77
2022-10-13T11:45:12.363Z,18.77
2022-10-13T11:48:12.094Z,21.08
2022-10-13T11:50:48.442Z,20.30
2022-10-13T11:53:26.131Z,19.45
2022-10-13T11:55:58.136Z,19.42
2022-10-13T11:58:27.785Z,19.40
2022-10-13T12:00:59.014Z,22.05
2022-10-13T12:03:31.960Z,20.73
2022-10-13T12:06:23.168Z,21.70
2022-10-13T12:08:51.951Z,23.85
2022-10-13T12:11:27.643Z,22.80
2022-10-13T12:13:54.964Z,23.35
2022-10-13T12:16:22.037Z,23.55
2022-10-13T12:18:50.364Z,22.85
2022-10-13T12:21:21.149Z,23.50
2022-10-13T12:23:49.778Z,23.55
2022-10-13T12:26:19.427Z,20.98
2022-10-13T12:28:52.291Z,21.50
2022-10-13T12:31:23.048Z,22.33
2022-10-13T12:33:55.814Z,23.95
2022-10-13T12:36:29.340Z,22.30
2022-10-13T12:39:01.610Z,23.95
2022-10-13T12:41:34.278Z,21.65
2022-10-13T12:44:05.634Z,21.73
2022-10-13T12:46:41.488Z,25.55
2022-10-13T12:49:23.490Z,22.98
2022-10-13T12:52:24.422Z,22.52
2022-10-13T12:54:54.096Z,23.02
2022-10-13T12:57:35.237Z,22.92
2022-10-13T13:00:03.604Z,22.20
2022-10-13T13:02:32.880Z,22.90
2022-10-13T13:04:59.638Z,22.08
2022-10-13T13:07:30.851Z,23.52
2022-10-13T13:10:18.664Z,21.85
2022-10-13T13:12:46.758Z,20.42
2022-10-13T13:15:21.481Z,21.02
2022-10-13T13:18:03.562Z,20.90
2022-10-13T13:20:33.186Z,21.13
2022-10-13T13:23:00.745Z,21.23
2022-10-13T13:25:27.436Z,19.13
2022-10-13T13:27:54.251Z,19.27
2022-10-13T13:30:23.384Z,20.02
2022-10-13T13:32:50.587Z,17.67
2022-10-13T13:35:17.923Z,19.30
2022-10-13T13:37:50.483Z,18.95
2022-10-13T13:40:23.112Z,18.85
2022-10-13T13:42:49.786Z,20.65
2022-10-13T13:45:19.238Z,19.40
2022-10-13T13:47:46.164Z,18.48
2022-10-13T13:50:18.007Z,17.75
2022-10-13T13:52:55.831Z,19.42
2022-10-13T13:55:23.487Z,19.40
2022-10-13T13:57:50.248Z,21.13
2022-10-13T14:00:17.606Z,20.75
2022-10-13T14:02:47.208Z,21.85
2022-10-13T14:05:14.150Z,21.05
2022-10-13T14:07:41.080Z,18.70
2022-10-13T14:10:10.336Z,21.30
2022-10-13T14:12:36.970Z,20.05
2022-10-13T14:15:04.400Z,20.00
2022-10-13T14:17:31.171Z,16.98
2022-10-13T14:20:00.487Z,19.42
2022-10-13T14:22:27.465Z,19.42
2022-10-13T14:24:54.362Z,22.45
2022-10-13T14:27:21.042Z,21.02
2022-10-13T14:29:47.769Z,23.33
2022-10-13T14:32:15.534Z,22.13
2022-10-13T14:34:44.064Z,21.33
2022-10-13T14:37:11.167Z,20.25
2022-10-13T14:39:37.799Z,20.40
2022-10-13T14:42:04.434Z,22.10
2022-10-13T14:44:31.179Z,19.52
2022-10-13T14:46:58.482Z,19.33
2022-10-13T14:49:25.631Z,20.33
2022-10-13T14:51:52.449Z,20.90
2022-10-13T14:54:19.145Z,20.77
2022-10-13T14:56:46.010Z,19.45
2022-10-13T14:59:13.009Z,20.77
2022-10-13T15:01:43.321Z,20.15
2022-10-13T15:04:10.336Z,20.15
2022-10-13T15:06:41.508Z,21.67
2022-10-13T15:11:41.132Z,20.30
2022-10-13T15:14:09.743Z,18.50
2022-10-13T15:16:37.854Z,20.35
2022-10-13T15:19:04.827Z,19.88
2022-10-13T15:21:31.669Z,18.30
2022-10-13T15:23:58.280Z,18.52
2022-10-13T15:26:24.993Z,18.27
2022-10-13T15:28:52.915Z,18.30
2022-10-13T15:31:22.056Z,17.20
2022-10-13T15:33:51.717Z,16.73
2022-10-13T15:36:21.912Z,15.75
2022-10-13T15:38:48.839Z,14.07
2022-10-13T15:41:16.420Z,15.80
2022-10-13T15:43:43.471Z,13.27
2022-10-13T15:46:21.166Z,13.90
2022-10-13T15:48:49.333Z,14.57
2022-10-13T15:51:19.440Z,14.38
2022-10-13T15:53:47.876Z,14.80
2022-10-13T15:56:14.817Z,15.35
2022-10-13T15:58:41.698Z,14.05
2022-10-13T16:01:10.117Z,13.10
2022-10-13T16:03:38.093Z,13.20
2022-10-13T16:06:10.870Z,11.90
2022-10-13T16:08:44.134Z,12.75
2022-10-13T16:11:13.559Z,12.55
2022-10-13T16:13:40.854Z,13.40
2022-10-13T16:16:08.326Z,13.57
2022-10-13T16:18:36.854Z,12.90
2022-10-13T16:21:13.355Z,17.08
2022-10-13T16:23:44.431Z,13.27
2022-10-13T16:26:11.082Z,13.52
2022-10-13T16:28:38.143Z,12.85
2022-10-13T16:31:07.951Z,12.45
2022-10-13T16:33:37.696Z,13.23
2022-10-13T16:36:07.285Z,13.07
2022-10-13T16:38:34.177Z,11.98
2022-10-13T16:41:09.994Z,14.00
2022-10-13T16:43:36.713Z,12.60
2022-10-13T16:46:05.076Z,11.80
2022-10-13T16:48:33.077Z,13.20
2022-10-13T16:51:00.741Z,12.25
2022-10-13T16:53:29.520Z,17.35
2022-10-13T16:55:56.091Z,15.73
2022-10-13T16:58:22.766Z,13.88
2022-10-13T17:00:49.587Z,13.23
2022-10-13T17:03:16.380Z,13.05
2022-10-13T17:05:45.397Z,12.07
2022-10-13T17:08:12.074Z,19.35
2022-10-13T17:10:38.798Z,19.95
2022-10-13T17:13:05.407Z,16.83
2022-10-13T17:15:32.203Z,14.60
2022-10-13T17:17:58.889Z,14.00
2022-10-13T17:20:25.455Z,12.27
2022-10-13T17:22:52.083Z,11.50
2022-10-13T17:25:19.372Z,12.25
2022-10-13T17:27:46.040Z,13.18
2022-10-13T17:30:13.262Z,15.60
2022-10-13T17:32:42.415Z,12.63
2022-10-13T17:35:15.423Z,12.45
2022-10-13T17:37:43.073Z,12.30
2022-10-13T17:40:12.146Z,12.57
2022-10-13T17:42:38.755Z,12.18
2022-10-13T17:45:05.974Z,14.30
2022-10-13T17:47:32.802Z,17.67
2022-10-13T17:49:59.366Z,16.02
2022-10-13T17:52:26.762Z,13.40
2022-10-13T17:54:53.355Z,13.15
2022-10-13T17:57:20.191Z,12.35
2022-10-13T17:59:46.993Z,13.43
2022-10-13T18:02:13.834Z,13.45
2022-10-13T18:04:40.512Z,13.68
2022-10-13T18:07:07.149Z,20.73
2022-10-13T18:09:33.723Z,15.25
2022-10-13T18:12:00.327Z,13.68
2022-10-13T18:14:27.583Z,12.98
2022-10-13T18:16:54.397Z,13.05
2022-10-13T18:19:21.616Z,13.40
2022-10-13T18:21:48.602Z,15.95
2022-10-13T18:24:15.801Z,14.55
2022-10-13T18:26:42.428Z,14.57
2022-10-13T18:29:11.418Z,13.95
2022-10-13T18:31:39.923Z,13.15
2022-10-13T18:34:11.325Z,12.32
2022-10-13T18:36:41.562Z,12.57
2022-10-13T18:39:28.847Z,12.35
2022-10-13T18:41:57.134Z,13.20
2022-10-13T18:44:33.864Z,11.75
2022-10-13T18:47:00.754Z,12.95
2022-10-13T18:49:33.199Z,11.85
2022-10-13T18:52:01.126Z,13.82
2022-10-13T18:54:29.360Z,12.32
2022-10-13T18:56:56.538Z,14.63
2022-10-13T18:59:23.677Z,13.25
2022-10-13T19:01:50.433Z,13.00
2022-10-13T19:04:17.190Z,13.60
2022-10-13T19:06:44.971Z,12.65
2022-10-13T19:09:14.443Z,11.70
2022-10-13T19:11:41.832Z,12.93
2022-10-13T19:14:11.476Z,11.70
2022-10-13T19:16:40.355Z,13.32
2022-10-13T19:19:10.040Z,11.57
2022-10-13T19:21:37.999Z,13.15
2022-10-13T19:24:05.140Z,13.85
2022-10-13T19:26:34.209Z,12.27
2022-10-13T19:29:07.319Z,13.18
2022-10-13T19:31:36.508Z,13.88
2022-10-13T19:34:07.044Z,13.48
2022-10-13T19:36:39.724Z,12.88
2022-10-13T19:39:14.731Z,12.07
2022-10-13T19:41:41.650Z,12.48
2022-10-13T19:44:08.339Z,12.70
2022-10-13T19:46:39.294Z,12.18
2022-10-13T19:49:06.190Z,13.00
2022-10-13T19:51:34.249Z,14.02
2022-10-13T19:54:01.481Z,11.45
2022-10-13T19:56:31.594Z,12.48
2022-10-13T19:58:59.375Z,12.00
2022-10-13T20:01:26.802Z,12.32
2022-10-13T20:03:54.180Z,12.45
2022-10-13T20:06:21.514Z,11.02
2022-10-13T20:08:52.478Z,11.90
2022-10-13T20:11:23.717Z,12.07
2022-10-13T20:13:51.659Z,10.90
2022-10-13T20:16:21.992Z,11.05
2022-10-13T20:18:53.548Z,11.85
2022-10-13T20:21:20.521Z,11.68
2022-10-13T20:23:47.158Z,13.55
2022-10-13T20:26:13.946Z,13.68
2022-10-13T20:28:43.169Z,11.80
2022-10-13T20:31:12.810Z,12.13
2022-10-13T20:33:40.236Z,14.27
2022-10-13T20:36:10.421Z,12.80
2022-10-13T20:38:37.243Z,13.65
2022-10-13T20:41:28.633Z,12.13
2022-10-13T20:43:58.087Z,12.88
2022-10-13T20:46:25.823Z,13.18
2022-10-13T20:49:11.378Z,12.32
2022-10-13T20:51:40.326Z,12.02
2022-10-13T20:54:07.926Z,12.48
2022-10-13T20:56:38.664Z,11.52
2022-10-13T20:59:08.548Z,11.30
2022-10-13T21:01:37.316Z,13.10
2022-10-13T21:04:07.115Z,13.73
2022-10-13T21:06:34.631Z,13.77
2022-10-13T21:09:01.987Z,12.43
2022-10-13T21:11:28.685Z,12.63
2022-10-13T21:13:55.462Z,11.82
2022-10-13T21:16:26.995Z,11.15
2022-10-13T21:18:55.268Z,11.77
2022-10-13T21:21:30.616Z,11.48
2022-10-13T21:23:59.547Z,11.85
2022-10-13T21:26:27.956Z,12.23
2022-10-13T21:28:54.700Z,11.80
2022-10-13T21:31:23.068Z,11.80
2022-10-13T21:33:50.273Z,13.50
2022-10-13T21:36:24.018Z,13.05
2022-10-13T21:38:53.334Z,12.23
2022-10-13T21:41:21.075Z,13.43
2022-10-13T21:43:48.799Z,13.32
2022-10-13T21:46:24.482Z,12.75
2022-10-13T21:48:57.739Z,13.13
2022-10-13T21:51:32.911Z,13.77
2022-10-13T21:54:03.720Z,13.68
2022-10-13T21:56:31.506Z,13.43
2022-10-13T21:58:59.286Z,13.43
2022-10-13T22:01:26.334Z,11.82
2022-10-13T22:03:58.572Z,13.45
2022-10-13T22:06:27.080Z,12.52
2022-10-13T22:08:55.677Z,12.32
2022-10-13T22:11:24.567Z,14.23
2022-10-13T22:13:51.370Z,11.75
2022-10-13T22:16:21.718Z,12.15
2022-10-13T22:18:51.505Z,12.70
2022-10-13T22:21:21.202Z,11.02
2022-10-13T22:23:47.753Z,11.77
2022-10-13T22:26:16.189Z,10.70
2022-10-13T22:28:44.627Z,11.00
2022-10-13T22:31:13.054Z,10.93
2022-10-13T22:33:41.437Z,10.02
2022-10-13T22:36:15.607Z,10.65
2022-10-13T22:38:43.518Z,10.40
2022-10-13T22:41:10.197Z,10.93
2022-10-13T22:43:37.354Z,10.23
2022-10-13T22:46:14.560Z,11.98
2022-10-13T22:48:41.888Z,10.35
2022-10-13T22:51:17.554Z,10.02
2022-10-13T22:53:44.773Z,11.75
2022-10-13T22:56:26.164Z,10.00
2022-10-13T22:58:58.222Z,10.32
2022-10-13T23:01:26.191Z,10.48
2022-10-13T23:03:55.297Z,11.93
2022-10-13T23:06:24.546Z,12.70
2022-10-13T23:08:51.193Z,13.23
2022-10-13T23:11:18.212Z,12.65
2022-10-13T23:13:45.242Z,12.68
2022-10-13T23:16:14.999Z,11.90
2022-10-13T23:18:44.407Z,10.48
2022-10-13T23:21:23.998Z,11.15
2022-10-13T23:23:57.626Z,10.88
2022-10-13T23:26:24.791Z,10.45
2022-10-13T23:28:52.418Z,9.68
2022-10-13T23:31:19.204Z,11.10
2022-10-13T23:33:45.923Z,10.07
2022-10-13T23:36:18.919Z,9.52
2022-10-13T23:38:55.072Z,9.55
2022-10-13T23:41:21.884Z,9.93
2022-10-13T23:43:48.446Z,10.38
2022-10-13T23:46:15.174Z,9.23
2022-10-13T23:48:41.796Z,8.93
2022-10-13T23:51:14.531Z,9.75
2022-10-13T23:53:42.483Z,9.52
2022-10-13T23:56:11.458Z,9.68
2022-10-13T23:58:40.201Z,9.95
